Eldorado — PEEA — position and weather

sailwx.info

Track history (hours):
 
Tides and Currents Weather Stations Pressure Air Temp Water Temp Dewpoint Dewpoint Depression Visibility Wind Speed Wind Dir Waves Ship Positions

Eldorado

Last reported at 2018-Sep-19 03:01 UTC. Time now 2018-Sep-19 03:12 UTC.
Position N 53°33' E 008°34'.

Length 38 m; draft 3.1 m.

Type: Sailing vessel. MMSI: 244670000.

Date/timePositionNaut miles runAvg speedWind from/ knotsBaromVisibWave heightAir tempDewpointWater temp
2018-Sep-19 03:01N 53°33' E 008°34'0 0.0
2018-Sep-19 02:53N 53°33' E 008°34'0 0.0
2018-Sep-19 02:28N 53°33' E 008°34'0 0.0
2018-Sep-19 01:57N 53°33' E 008°34'0 0.0
2018-Sep-19 01:24N 53°33' E 008°34'0 0.0
2018-Sep-19 00:56N 53°33' E 008°34'0 0.0
2018-Sep-19 00:28N 53°33' E 008°34'0 0.0
2018-Sep-18 23:56N 53°33' E 008°34'0 0.0
2018-Sep-18 23:25N 53°33' E 008°34'0 0.0
2018-Sep-18 23:02N 53°33' E 008°34'0 0.0
2018-Sep-18 22:59N 53°33' E 008°34'0 0.0
2018-Sep-18 22:28N 53°33' E 008°34'0 0.0
2018-Sep-18 22:01N 53°33' E 008°34'0 0.0
2018-Sep-18 21:58N 53°33' E 008°34'0 0.0
2018-Sep-18 21:28N 53°33' E 008°34'0 0.0
2018-Sep-18 20:58N 53°33' E 008°34'0 0.0
2018-Sep-18 20:28N 53°33' E 008°34'0 0.0
2018-Sep-18 19:57N 53°33' E 008°34'0 0.0
2018-Sep-18 19:29N 53°33' E 008°34'0 0.0
2018-Sep-18 19:01N 53°33' E 008°34'0 0.0
2018-Sep-18 18:53N 53°33' E 008°34'0 0.0
2018-Sep-18 18:28N 53°33' E 008°34'0 0.0
2018-Sep-18 18:01N 53°33' E 008°34'0 0.0
2018-Sep-18 17:58N 53°33' E 008°34'0 0.0
2018-Sep-18 17:25N 53°33' E 008°34'0 0.0
2018-Sep-18 17:03N 53°33' E 008°34'0 0.0
2018-Sep-18 17:00N 53°33' E 008°34'0 0.0
2018-Sep-18 16:28N 53°33' E 008°34'0 0.0
2018-Sep-18 16:02N 53°33' E 008°34'0 0.0
2018-Sep-18 15:59N 53°33' E 008°34'0 0.0
2018-Sep-18 15:23N 53°33' E 008°34'0 0.0
2018-Sep-18 15:03N 53°33' E 008°34'0 0.0
2018-Sep-18 15:00N 53°33' E 008°34'0 0.0
2018-Sep-18 14:30N 53°33' E 008°34'1 1.6
2018-Sep-18 14:00N 53°32' E 008°34'4 6.9
2018-Sep-18 13:30N 53°35' E 008°31'1 2.2
2018-Sep-18 13:01N 53°36' E 008°31'0 5.6
2018-Sep-18 13:00N 53°36' E 008°31'3 6.2
2018-Sep-18 12:30N 53°33' E 008°33'1 1.6
2018-Sep-18 12:04N 53°33' E 008°34'0 0.0
2018-Sep-18 12:00N 53°33' E 008°34'0 0.2
2018-Sep-18 11:30N 53°33' E 008°34'0 0.0
2018-Sep-18 11:03N 53°33' E 008°34'0 0.0
2018-Sep-18 11:01N 53°33' E 008°34'0 0.0
2018-Sep-18 10:30N 53°33' E 008°34'0 0.0
2018-Sep-18 10:03N 53°33' E 008°34'0 0.0
2018-Sep-18 10:00N 53°33' E 008°34'0 0.2
2018-Sep-18 09:30N 53°33' E 008°34'1 1.7
2018-Sep-18 09:03N 53°33' E 008°33'0 4.9
2018-Sep-18 09:00N 53°33' E 008°33'2 4.7
2018-Sep-18 08:30N 53°35' E 008°31'1 1.5
2018-Sep-18 08:02N 53°35' E 008°32'0 9.2
2018-Sep-18 07:59N 53°35' E 008°32'2 5.1
2018-Sep-18 07:30N 53°32' E 008°34'0 0.5
2018-Sep-18 07:03N 53°33' E 008°34'0 0.0
2018-Sep-18 07:00N 53°33' E 008°34'0 0.0
2018-Sep-18 06:26N 53°33' E 008°34'0 0.0
2018-Sep-18 06:03N 53°33' E 008°34'0 0.0
2018-Sep-18 05:55N 53°33' E 008°34'0 0.0
2018-Sep-18 05:30N 53°33' E 008°34'0 0.0
2018-Sep-18 05:01N 53°33' E 008°34'0 0.0
2018-Sep-18 04:58N 53°33' E 008°34'0 0.0
2018-Sep-18 04:29N 53°33' E 008°34'0 0.0
2018-Sep-18 04:03N 53°33' E 008°34'0 0.0
2018-Sep-18 04:00N 53°33' E 008°34'0 0.0
2018-Sep-18 03:29N 53°33' E 008°34'0 0.0
2018-Sep-18 03:03N 53°33' E 008°34'0 0.0
2018-Sep-18 03:00N 53°33' E 008°34'0 0.0
2018-Sep-18 02:29N 53°33' E 008°34'0 0.0
2018-Sep-18 02:02N 53°33' E 008°34'0 0.0
2018-Sep-18 01:54N 53°33' E 008°34'0 0.0
2018-Sep-18 01:30N 53°33' E 008°34'0 0.0
2018-Sep-18 01:03N 53°33' E 008°34'0 0.0
2018-Sep-18 01:00N 53°33' E 008°34'0 0.0
2018-Sep-18 00:27N 53°33' E 008°34'0 0.0
2018-Sep-17 23:56N 53°33' E 008°34'0 0.0
2018-Sep-17 23:23N 53°33' E 008°34'0 0.0
2018-Sep-17 23:02N 53°33' E 008°34'0 0.0
2018-Sep-17 22:59N 53°33' E 008°34'0 0.0
2018-Sep-17 22:29N 53°33' E 008°34'0 0.0
2018-Sep-17 22:02N 53°33' E 008°34'0 0.0
2018-Sep-17 21:54N 53°33' E 008°34'0 0.0
2018-Sep-17 21:30N 53°33' E 008°34'0 0.0
2018-Sep-17 20:59N 53°33' E 008°34'0 0.0
2018-Sep-17 20:29N 53°33' E 008°34'0 0.0
2018-Sep-17 20:03N 53°33' E 008°34'0 0.0
2018-Sep-17 20:00N 53°33' E 008°34'0 0.0
2018-Sep-17 19:30N 53°33' E 008°34'0 0.0
2018-Sep-17 19:01N 53°33' E 008°34'0 0.0
2018-Sep-17 18:58N 53°33' E 008°34'0 0.0
2018-Sep-17 18:28N 53°33' E 008°34'0 0.0
2018-Sep-17 18:03N 53°33' E 008°34'0 0.0
2018-Sep-17 18:00N 53°33' E 008°34'0 0.0
2018-Sep-17 17:24N 53°33' E 008°34'0 0.0
2018-Sep-17 17:03N 53°33' E 008°34'0 0.0
2018-Sep-17 17:00N 53°33' E 008°34'0 0.0
2018-Sep-17 16:28N 53°33' E 008°34'0 0.0
2018-Sep-17 16:03N 53°33' E 008°34'0 0.0
2018-Sep-17 16:00N 53°33' E 008°34'0 0.0
2018-Sep-17 15:29N 53°33' E 008°34'0 0.0
2018-Sep-17 15:01N 53°33' E 008°34'0 0.0
2018-Sep-17 14:59N 53°33' E 008°34'0 0.0
2018-Sep-17 14:30N 53°33' E 008°34'0 0.0
2018-Sep-17 13:58N 53°33' E 008°34'0 0.0
2018-Sep-17 13:29N 53°33' E 008°34'0 0.0
2018-Sep-17 13:03N 53°33' E 008°34'0 0.0
2018-Sep-17 13:00N 53°33' E 008°34'0 0.0
2018-Sep-17 12:27N 53°33' E 008°34'0 0.0
2018-Sep-17 12:02N 53°33' E 008°34'0 0.0
2018-Sep-17 12:00N 53°33' E 008°34'0 0.2
2018-Sep-17 11:30N 53°33' E 008°34'2 4.7
2018-Sep-17 11:03N 53°31' E 008°32'110.2
2018-Sep-17 11:00N 53°31' E 008°32'5 9.7
2018-Sep-17 10:30N 53°26' E 008°30'510.0
2018-Sep-17 10:03N 53°21' E 008°30'110.1
2018-Sep-17 09:59N 53°21' E 008°30'1 2.3
2018-Sep-17 09:28N 53°20' E 008°29'0 0.0
2018-Sep-17 08:31N 53°20' E 008°29'0 0.1
2018-Sep-17 08:28N 53°20' E 008°29'0 0.0
2018-Sep-17 07:58N 53°20' E 008°29'0 0.0
2018-Sep-17 07:16N 53°20' E 008°29'0 0.0
2018-Sep-17 07:01N 53°20' E 008°29'0 0.0
2018-Sep-17 06:28N 53°20' E 008°29'0 0.0
2018-Sep-17 06:03N 53°20' E 008°29'0 0.0
2018-Sep-17 06:00N 53°20' E 008°29'0 0.0
2018-Sep-17 05:28N 53°20' E 008°29'0 0.0
2018-Sep-17 05:00N 53°20' E 008°29'0 0.0
2018-Sep-17 04:25N 53°20' E 008°29'0 0.0
2018-Sep-17 04:01N 53°20' E 008°29'0 0.0
2018-Sep-17 03:58N 53°20' E 008°29'0 0.0
2018-Sep-17 03:30N 53°20' E 008°29'0 0.0
2018-Sep-17 03:02N 53°20' E 008°29'0 0.0
2018-Sep-17 02:59N 53°20' E 008°29'0 0.0
2018-Sep-17 02:29N 53°20' E 008°29'0 0.0
2018-Sep-17 02:03N 53°20' E 008°29'0 0.1
2018-Sep-17 01:59N 53°20' E 008°29'0 0.0
2018-Sep-17 01:28N 53°20' E 008°29'0 0.0
2018-Sep-17 01:03N 53°20' E 008°29'0 0.0
2018-Sep-17 00:57N 53°20' E 008°29'0 0.0
2018-Sep-17 00:27N 53°20' E 008°29'0 0.0
2018-Sep-17 00:04N 53°20' E 008°29'0 0.1
2018-Sep-16 23:56N 53°20' E 008°29'0 0.0
2018-Sep-16 23:28N 53°20' E 008°29'0 0.0
2018-Sep-16 23:01N 53°20' E 008°29'0 0.1
2018-Sep-16 22:57N 53°20' E 008°29'0 0.0
2018-Sep-16 22:27N 53°20' E 008°29'0 0.0
2018-Sep-16 22:01N 53°20' E 008°29'0 0.0
2018-Sep-16 21:58N 53°20' E 008°29'0 0.0
2018-Sep-16 21:28N 53°20' E 008°29'0 0.0
2018-Sep-16 21:01N 53°20' E 008°29'0 0.0
2018-Sep-16 20:54N 53°20' E 008°29'0 0.0
2018-Sep-16 20:27N 53°20' E 008°29'0 0.0
2018-Sep-16 20:01N 53°20' E 008°29'0 0.0
2018-Sep-16 19:58N 53°20' E 008°29'0 0.0
2018-Sep-16 19:29N 53°20' E 008°29'0 0.0
2018-Sep-16 19:01N 53°20' E 008°29'0 0.0
2018-Sep-16 18:57N 53°20' E 008°29'0 0.0
2018-Sep-16 18:29N 53°20' E 008°29'0 0.0
2018-Sep-16 17:50N 53°20' E 008°29'0 0.0
2018-Sep-16 17:26N 53°20' E 008°29'0 0.0
2018-Sep-16 17:01N 53°20' E 008°29'0 0.0
2018-Sep-16 16:59N 53°20' E 008°29'0 0.0
2018-Sep-16 16:29N 53°20' E 008°29'0 0.0
2018-Sep-16 16:02N 53°20' E 008°29'0 0.0
2018-Sep-16 15:59N 53°20' E 008°29'0 0.0
2018-Sep-16 15:26N 53°20' E 008°29'0 0.0
2018-Sep-16 15:00N 53°20' E 008°29'0 0.0
2018-Sep-16 14:28N 53°20' E 008°29'0 0.0
2018-Sep-16 13:28N 53°20' E 008°29'0 0.0
2018-Sep-16 13:01N 53°20' E 008°29'0 0.1
2018-Sep-16 12:58N 53°20' E 008°29'0 0.0
2018-Sep-16 12:30N 53°20' E 008°29'0 0.0
2018-Sep-16 12:03N 53°20' E 008°29'0 0.1
2018-Sep-16 12:00N 53°20' E 008°29'0 0.0
2018-Sep-16 11:24N 53°20' E 008°29'0 0.0
2018-Sep-16 11:01N 53°20' E 008°29'0 0.0
2018-Sep-16 10:52N 53°20' E 008°29'0 0.0
2018-Sep-16 10:28N 53°20' E 008°29'0 0.0
2018-Sep-16 10:03N 53°20' E 008°29'0 0.0
2018-Sep-16 10:00N 53°20' E 008°29'0 0.0
2018-Sep-16 09:30N 53°20' E 008°29'0 0.0
2018-Sep-16 09:01N 53°20' E 008°29'0 0.0
2018-Sep-16 08:58N 53°20' E 008°29'0 0.0
2018-Sep-16 08:29N 53°20' E 008°29'0 0.0
2018-Sep-16 07:58N 53°20' E 008°29'0 0.0
2018-Sep-16 07:30N 53°20' E 008°29'0 0.0
2018-Sep-16 07:02N 53°20' E 008°29'0 0.0
2018-Sep-16 06:56N 53°20' E 008°29'0 0.0
2018-Sep-16 06:28N 53°20' E 008°29'0 0.0
2018-Sep-16 06:03N 53°20' E 008°29'0 0.0
2018-Sep-16 05:55N 53°20' E 008°29'0 0.0
2018-Sep-16 05:28N 53°20' E 008°29'0 0.0
2018-Sep-16 05:02N 53°20' E 008°29'0 0.0
2018-Sep-16 04:54N 53°20' E 008°29'0 0.0
2018-Sep-16 04:27N 53°20' E 008°29'0 0.0
2018-Sep-16 03:57N 53°20' E 008°29'0 0.0
2018-Sep-16 03:23N 53°20' E 008°29'0 0.0
2018-Sep-16 03:01N 53°20' E 008°29'0 0.0
2018-Sep-16 02:58N 53°20' E 008°29'0 0.0
2018-Sep-16 02:29N 53°20' E 008°29'0 0.0
2018-Sep-16 01:56N 53°20' E 008°29'0 0.0
2018-Sep-16 01:29N 53°20' E 008°29'0 0.0
2018-Sep-16 01:02N 53°20' E 008°29'0 0.0
2018-Sep-16 00:59N 53°20' E 008°29'0 0.0
2018-Sep-16 00:29N 53°20' E 008°29'0 0.0
2018-Sep-16 00:03N 53°20' E 008°29'0 0.0
2018-Sep-16 00:00N 53°20' E 008°29'0 0.0
2018-Sep-15 23:20N 53°20' E 008°29'0 0.0
2018-Sep-15 22:59N 53°20' E 008°29'0 0.0
2018-Sep-15 22:30N 53°20' E 008°29'0 0.0
2018-Sep-15 22:01N 53°20' E 008°29'0 0.1
2018-Sep-15 21:58N 53°20' E 008°29'0 0.0
2018-Sep-15 21:29N 53°20' E 008°29'0 0.0
2018-Sep-15 21:02N 53°20' E 008°29'0 0.0
2018-Sep-15 20:58N 53°20' E 008°29'0 0.0
2018-Sep-15 20:30N 53°20' E 008°29'0 0.0
2018-Sep-15 20:03N 53°20' E 008°29'0 0.1
2018-Sep-15 20:00N 53°20' E 008°29'0 0.0
2018-Sep-15 19:23N 53°20' E 008°29'0 0.0
2018-Sep-15 19:00N 53°20' E 008°29'0 0.0
2018-Sep-15 18:29N 53°20' E 008°29'0 0.0
2018-Sep-15 17:57N 53°20' E 008°29'0 0.0
2018-Sep-15 17:26N 53°20' E 008°29'0 0.0
2018-Sep-15 17:03N 53°20' E 008°29'0 0.0
2018-Sep-15 17:00N 53°20' E 008°29'0 0.0
2018-Sep-15 16:22N 53°20' E 008°29'0 0.0
2018-Sep-15 15:59N 53°20' E 008°29'0 0.0
2018-Sep-15 15:28N 53°20' E 008°29'0 0.0
2018-Sep-15 14:59N 53°20' E 008°29'0 0.0
2018-Sep-15 14:30N 53°20' E 008°29'0 0.0
2018-Sep-15 14:00N 53°20' E 008°29'0 0.0
2018-Sep-15 13:28N 53°20' E 008°29'0 0.0
2018-Sep-15 13:02N 53°20' E 008°29'0 0.0
2018-Sep-15 12:58N 53°20' E 008°29'0 0.0
2018-Sep-15 12:28N 53°20' E 008°29'0 0.0
2018-Sep-15 12:03N 53°20' E 008°29'0 0.0
2018-Sep-15 11:55N 53°20' E 008°29'0 0.0
2018-Sep-15 11:30N 53°20' E 008°29'0 0.0
2018-Sep-15 11:01N 53°20' E 008°29'0 0.0
2018-Sep-15 10:58N 53°20' E 008°29'0 0.0
2018-Sep-15 10:28N 53°20' E 008°29'0 0.0
2018-Sep-15 10:01N 53°20' E 008°29'0 0.0
2018-Sep-15 09:58N 53°20' E 008°29'0 0.0
2018-Sep-15 09:29N 53°20' E 008°29'0 0.0
2018-Sep-15 09:02N 53°20' E 008°29'0 0.0
2018-Sep-15 08:59N 53°20' E 008°29'0 0.0
2018-Sep-15 08:29N 53°20' E 008°29'0 0.0
2018-Sep-15 08:02N 53°20' E 008°29'0 0.0
2018-Sep-15 07:59N 53°20' E 008°29'0 0.0
2018-Sep-15 07:29N 53°20' E 008°29'0 0.0
2018-Sep-15 07:02N 53°20' E 008°29'0 0.0
2018-Sep-15 06:56N 53°20' E 008°29'0 0.0
2018-Sep-15 06:20N 53°20' E 008°29'0 0.0
2018-Sep-15 05:57N 53°20' E 008°29'0 0.0
2018-Sep-15 05:30N 53°20' E 008°29'0 0.0
2018-Sep-15 05:03N 53°20' E 008°29'0 0.0
2018-Sep-15 05:00N 53°20' E 008°29'0 0.0
2018-Sep-15 04:28N 53°20' E 008°29'0 0.0
2018-Sep-15 04:03N 53°20' E 008°29'0 0.0
2018-Sep-15 04:00N 53°20' E 008°29'0 0.0
2018-Sep-15 03:20N 53°20' E 008°29'0 0.0
2018-Sep-15 03:02N 53°20' E 008°29'0 0.0
2018-Sep-15 02:58N 53°20' E 008°29'0 0.0
2018-Sep-15 02:29N 53°20' E 008°29'0 0.0
2018-Sep-15 02:03N 53°20' E 008°29'0 0.0
2018-Sep-15 01:55N 53°20' E 008°29'0 0.0
2018-Sep-15 01:29N 53°20' E 008°29'0 0.0
2018-Sep-15 01:02N 53°20' E 008°29'0 0.0
2018-Sep-15 00:59N 53°20' E 008°29'0 0.0
2018-Sep-15 00:29N 53°20' E 008°29'0 0.0
2018-Sep-15 00:01N 53°20' E 008°29'0 0.0
2018-Sep-14 23:58N 53°20' E 008°29'0 0.0
2018-Sep-14 23:25N 53°20' E 008°29'0 0.0
2018-Sep-14 23:02N 53°20' E 008°29'0 0.0
2018-Sep-14 22:54N 53°20' E 008°29'0 0.0
2018-Sep-14 22:30N 53°20' E 008°29'0 0.0
2018-Sep-14 22:02N 53°20' E 008°29'0 0.0
2018-Sep-14 21:59N 53°20' E 008°29'0 0.0
2018-Sep-14 21:30N 53°20' E 008°29'0 0.0
2018-Sep-14 21:03N 53°20' E 008°29'0 0.1
2018-Sep-14 21:00N 53°20' E 008°29'0 0.0
2018-Sep-14 20:28N 53°20' E 008°29'0 0.0
2018-Sep-14 19:57N 53°20' E 008°29'0 0.0
2018-Sep-14 19:26N 53°20' E 008°29'0 0.0
2018-Sep-14 19:01N 53°20' E 008°29'0 0.2
2018-Sep-14 19:00N 53°20' E 008°29'0 0.0
2018-Sep-14 18:30N 53°20' E 008°29'0 0.0
2018-Sep-14 17:57N 53°20' E 008°29'0 0.0
2018-Sep-14 17:25N 53°20' E 008°29'0 0.0
2018-Sep-14 17:00N 53°20' E 008°29'0 0.0
2018-Sep-14 16:29N 53°20' E 008°29'0 0.0
2018-Sep-14 15:50N 53°20' E 008°29'0 0.0
2018-Sep-14 15:25N 53°20' E 008°29'0 0.0
2018-Sep-14 15:02N 53°20' E 008°29'0 0.2
2018-Sep-14 15:00N 53°20' E 008°29'0 0.0
2018-Sep-14 14:24N 53°20' E 008°29'0 0.0
2018-Sep-14 13:57N 53°20' E 008°29'0 0.0
2018-Sep-14 13:30N 53°20' E 008°29'0 0.0
2018-Sep-14 12:54N 53°20' E 008°29'0 0.0
2018-Sep-14 12:28N 53°20' E 008°29'0 0.0
2018-Sep-14 11:57N 53°20' E 008°29'0 0.0
2018-Sep-14 11:25N 53°20' E 008°29'0 0.0
2018-Sep-14 11:03N 53°20' E 008°29'0 0.0
2018-Sep-14 10:59N 53°20' E 008°29'0 0.0
2018-Sep-14 10:28N 53°20' E 008°29'0 0.0
2018-Sep-14 09:59N 53°20' E 008°29'0 0.0
2018-Sep-14 09:26N 53°20' E 008°29'0 0.0
2018-Sep-14 09:01N 53°20' E 008°29'0 0.0
2018-Sep-14 08:53N 53°20' E 008°29'0 0.0
2018-Sep-14 08:29N 53°20' E 008°29'0 0.0
2018-Sep-14 07:59N 53°20' E 008°29'0 0.0
2018-Sep-14 07:23N 53°20' E 008°29'0 0.0
2018-Sep-14 07:02N 53°20' E 008°29'0 0.0
2018-Sep-14 06:55N 53°20' E 008°29'0 0.0
2018-Sep-14 06:30N 53°20' E 008°29'0 0.0
2018-Sep-14 06:03N 53°20' E 008°29'0 0.0
2018-Sep-14 05:59N 53°20' E 008°29'0 0.0
2018-Sep-14 05:26N 53°20' E 008°29'0 0.0
2018-Sep-14 05:03N 53°20' E 008°29'0 0.0
2018-Sep-14 05:00N 53°20' E 008°29'0 0.0
2018-Sep-14 04:30N 53°20' E 008°29'0 0.0
2018-Sep-14 03:59N 53°20' E 008°29'0 0.0
2018-Sep-14 03:26N 53°20' E 008°29'0 0.0
2018-Sep-14 03:00N 53°20' E 008°29'0 0.0
2018-Sep-14 02:28N 53°20' E 008°29'0 0.0
2018-Sep-14 02:03N 53°20' E 008°29'0 0.0
2018-Sep-14 01:58N 53°20' E 008°29'0 0.0
2018-Sep-14 01:30N 53°20' E 008°29'0 0.0
2018-Sep-14 01:01N 53°20' E 008°29'0 0.6
2018-Sep-14 01:01N 53°20' E 008°29'0 0.0
2018-Sep-14 00:29N 53°20' E 008°29'0 0.0
2018-Sep-13 23:58N 53°20' E 008°29'0 0.0
2018-Sep-13 23:30N 53°20' E 008°29'0 0.0
2018-Sep-13 23:02N 53°20' E 008°29'0 0.0
2018-Sep-13 22:51N 53°20' E 008°29'0 0.0
2018-Sep-13 22:26N 53°20' E 008°29'0 0.0
2018-Sep-13 22:02N 53°20' E 008°29'0 0.0
2018-Sep-13 22:00N 53°20' E 008°29'0 0.0
2018-Sep-13 21:30N 53°20' E 008°29'0 0.0
2018-Sep-13 21:02N 53°20' E 008°29'0 0.0
2018-Sep-13 20:59N 53°20' E 008°29'0 0.0
2018-Sep-13 20:27N 53°20' E 008°29'0 0.0
2018-Sep-13 20:02N 53°20' E 008°29'0 0.0
2018-Sep-13 19:59N 53°20' E 008°29'0 0.0
2018-Sep-13 19:28N 53°20' E 008°29'0 0.0
2018-Sep-13 18:56N 53°20' E 008°29'0 0.0
2018-Sep-13 18:24N 53°20' E 008°29'0 0.0
2018-Sep-13 18:01N 53°20' E 008°29'0 0.0
2018-Sep-13 17:58N 53°20' E 008°29'0 0.0
2018-Sep-12 14:48N 53°20' E 008°29'0 0.0
2018-Sep-12 14:24N 53°20' E 008°29'0 0.0
2018-Sep-12 14:00N 53°20' E 008°29'0 0.0
2018-Sep-11 06:18N 53°20' E 008°29'0 0.0
2018-Sep-11 06:04N 53°20' E 008°29'0 0.0
2018-Sep-11 05:58N 53°20' E 008°29'0 0.0
2018-Sep-11 05:29N 53°20' E 008°29'0 0.0
2018-Sep-11 05:01N 53°20' E 008°29'0 0.0
2018-Sep-11 04:28N 53°20' E 008°29'0 0.0
2018-Sep-11 04:03N 53°20' E 008°29'0 0.0
2018-Sep-11 03:49N 53°20' E 008°29'0 0.0
2018-Sep-10 09:22N 53°20' E 008°29'0 0.0
2018-Sep-10 09:02N 53°20' E 008°29'0 0.0
2018-Sep-10 08:49N 53°20' E 008°29'0 0.0
2018-Sep-10 08:25N 53°20' E 008°29'0 0.0
2018-Sep-10 08:02N 53°20' E 008°29'0 0.1
2018-Sep-10 07:58N 53°20' E 008°29'0 0.0
2018-Sep-10 07:22N 53°20' E 008°29'0 0.0
2018-Sep-10 07:00N 53°20' E 008°29'0 0.0
2018-Sep-10 06:30N 53°20' E 008°29'0 0.0
2018-Sep-10 06:03N 53°20' E 008°29'0 0.0
2018-Sep-10 06:00N 53°20' E 008°29'0 0.0
2018-Sep-10 05:22N 53°20' E 008°29'0 0.0
2018-Sep-10 05:01N 53°20' E 008°29'0 0.0
2018-Sep-10 04:58N 53°20' E 008°29'0 0.0
2018-Sep-10 04:29N 53°20' E 008°29'0 0.0
2018-Sep-10 03:56N 53°20' E 008°29'0 0.0
2018-Sep-10 03:24N 53°20' E 008°29'0 0.0
2018-Sep-10 03:01N 53°20' E 008°29'0 0.0
2018-Sep-10 02:59N 53°20' E 008°29'0 0.0
2018-Sep-10 02:29N 53°20' E 008°29'0 0.0
2018-Sep-10 02:03N 53°20' E 008°29'0 0.0
2018-Sep-10 01:57N 53°20' E 008°29'0 0.0
2018-Sep-10 01:31N 53°20' E 008°29'0 0.0
2018-Sep-10 00:59N 53°20' E 008°29'0 0.0
2018-Sep-09 23:24N 53°20' E 008°29'0 0.0
2018-Sep-09 22:59N 53°20' E 008°29'0 0.0
2018-Sep-09 22:29N 53°20' E 008°29'0 0.0
2018-Sep-09 22:03N 53°20' E 008°29'0 0.0
2018-Sep-09 21:56N 53°20' E 008°29'0 0.0
2018-Sep-09 21:30N 53°20' E 008°29'0 0.0
2018-Sep-09 21:03N 53°20' E 008°29'0 0.0
2018-Sep-09 21:00N 53°20' E 008°29'0 0.0
2018-Sep-09 20:28N 53°20' E 008°29'0 0.0
2018-Sep-09 20:03N 53°20' E 008°29'0 0.0
2018-Sep-09 19:57N 53°20' E 008°29'0 0.0
2018-Sep-09 19:24N 53°20' E 008°29'0 0.0
2018-Sep-09 19:00N 53°20' E 008°29'0 0.0
2018-Sep-09 18:26N 53°20' E 008°29'0 0.0
2018-Sep-09 18:02N 53°20' E 008°29'0 0.0
2018-Sep-09 17:55N 53°20' E 008°29'0 0.0
2018-Sep-09 17:30N 53°20' E 008°29'0 0.0
2018-Sep-09 16:57N 53°20' E 008°29'0 0.0
2018-Sep-09 16:29N 53°20' E 008°29'0 0.0
2018-Sep-09 16:02N 53°20' E 008°29'0 0.0
2018-Sep-09 15:54N 53°20' E 008°29'0 0.0
2018-Sep-09 15:30N 53°20' E 008°29'0 0.0
2018-Sep-09 15:00N 53°20' E 008°29'0 0.0
2018-Sep-09 14:21N 53°20' E 008°29'0 0.0
2018-Sep-09 13:57N 53°20' E 008°29'0 0.0
2018-Sep-09 13:25N 53°20' E 008°29'0 0.0
2018-Sep-09 13:01N 53°20' E 008°29'0 0.0
2018-Sep-09 12:59N 53°20' E 008°29'0 0.0
2018-Sep-09 12:27N 53°20' E 008°29'0 0.0
2018-Sep-09 11:55N 53°20' E 008°29'0 0.0
2018-Sep-09 11:30N 53°20' E 008°29'0 0.0
2018-Sep-09 11:01N 53°20' E 008°29'0 0.0
2018-Sep-09 10:58N 53°20' E 008°29'0 0.0
2018-Sep-09 10:21N 53°20' E 008°29'0 0.0
2018-Sep-09 10:03N 53°20' E 008°29'0 0.0
2018-Sep-09 09:56N 53°20' E 008°29'0 0.0
2018-Sep-09 09:30N 53°20' E 008°29'0 0.0
2018-Sep-09 09:00N 53°20' E 008°29'0 0.0
2018-Sep-09 08:21N 53°20' E 008°29'0 0.0
2018-Sep-09 08:02N 53°20' E 008°29'0 0.0
2018-Sep-09 07:50N 53°20' E 008°29'0 0.0
2018-Sep-09 07:30N 53°20' E 008°29'0 0.0
2018-Sep-09 07:00N 53°20' E 008°29'0 0.0
2018-Sep-09 06:25N 53°20' E 008°29'0 0.0
2018-Sep-09 06:02N 53°20' E 008°29'0 0.0
2018-Sep-09 05:55N 53°20' E 008°29'0 0.0
2018-Sep-09 05:29N 53°20' E 008°29'0 0.0
2018-Sep-09 04:54N 53°20' E 008°29'0 0.0
2018-Sep-09 04:18N 53°20' E 008°29'0 0.0
2018-Sep-09 04:03N 53°20' E 008°29'0 0.0
2018-Sep-09 03:54N 53°20' E 008°29'0 0.0
2018-Sep-09 03:29N 53°20' E 008°29'0 0.0
2018-Sep-09 03:00N 53°20' E 008°29'  
Track history (hours):
 
Tides and Currents Weather Stations Pressure Air Temp Water Temp Dewpoint Dewpoint Depression Visibility Wind Speed Wind Dir Waves Ship Positions

Eldorado

Last reported at 2018-Sep-19 03:01 UTC. Time now 2018-Sep-19 03:12 UTC.
Position N 53°33' E 008°34'.

Length 38 m; draft 3.1 m.

Type: Sailing vessel. MMSI: 244670000.

Date/timePositionNaut miles runAvg speedWind from/ knotsBaromVisibWave heightAir tempDewpointWater temp
2018-Sep-19 03:01N 53°33' E 008°34'0 0.0
2018-Sep-19 02:53N 53°33' E 008°34'0 0.0
2018-Sep-19 02:28N 53°33' E 008°34'0 0.0
2018-Sep-19 01:57N 53°33' E 008°34'0 0.0
2018-Sep-19 01:24N 53°33' E 008°34'0 0.0
2018-Sep-19 00:56N 53°33' E 008°34'0 0.0
2018-Sep-19 00:28N 53°33' E 008°34'0 0.0
2018-Sep-18 23:56N 53°33' E 008°34'0 0.0
2018-Sep-18 23:25N 53°33' E 008°34'0 0.0
2018-Sep-18 23:02N 53°33' E 008°34'0 0.0
2018-Sep-18 22:59N 53°33' E 008°34'0 0.0
2018-Sep-18 22:28N 53°33' E 008°34'0 0.0
2018-Sep-18 22:01N 53°33' E 008°34'0 0.0
2018-Sep-18 21:58N 53°33' E 008°34'0 0.0
2018-Sep-18 21:28N 53°33' E 008°34'0 0.0
2018-Sep-18 20:58N 53°33' E 008°34'0 0.0
2018-Sep-18 20:28N 53°33' E 008°34'0 0.0
2018-Sep-18 19:57N 53°33' E 008°34'0 0.0
2018-Sep-18 19:29N 53°33' E 008°34'0 0.0
2018-Sep-18 19:01N 53°33' E 008°34'0 0.0
2018-Sep-18 18:53N 53°33' E 008°34'0 0.0
2018-Sep-18 18:28N 53°33' E 008°34'0 0.0
2018-Sep-18 18:01N 53°33' E 008°34'0 0.0
2018-Sep-18 17:58N 53°33' E 008°34'0 0.0
2018-Sep-18 17:25N 53°33' E 008°34'0 0.0
2018-Sep-18 17:03N 53°33' E 008°34'0 0.0
2018-Sep-18 17:00N 53°33' E 008°34'0 0.0
2018-Sep-18 16:28N 53°33' E 008°34'0 0.0
2018-Sep-18 16:02N 53°33' E 008°34'0 0.0
2018-Sep-18 15:59N 53°33' E 008°34'0 0.0
2018-Sep-18 15:23N 53°33' E 008°34'0 0.0
2018-Sep-18 15:03N 53°33' E 008°34'0 0.0
2018-Sep-18 15:00N 53°33' E 008°34'0 0.0
2018-Sep-18 14:30N 53°33' E 008°34'1 1.6
2018-Sep-18 14:00N 53°32' E 008°34'4 6.9
2018-Sep-18 13:30N 53°35' E 008°31'1 2.2
2018-Sep-18 13:01N 53°36' E 008°31'0 5.6
2018-Sep-18 13:00N 53°36' E 008°31'3 6.2
2018-Sep-18 12:30N 53°33' E 008°33'1 1.6
2018-Sep-18 12:04N 53°33' E 008°34'0 0.0
2018-Sep-18 12:00N 53°33' E 008°34'0 0.2
2018-Sep-18 11:30N 53°33' E 008°34'0 0.0
2018-Sep-18 11:03N 53°33' E 008°34'0 0.0
2018-Sep-18 11:01N 53°33' E 008°34'0 0.0
2018-Sep-18 10:30N 53°33' E 008°34'0 0.0
2018-Sep-18 10:03N 53°33' E 008°34'0 0.0
2018-Sep-18 10:00N 53°33' E 008°34'0 0.2
2018-Sep-18 09:30N 53°33' E 008°34'1 1.7
2018-Sep-18 09:03N 53°33' E 008°33'0 4.9
2018-Sep-18 09:00N 53°33' E 008°33'2 4.7
2018-Sep-18 08:30N 53°35' E 008°31'1 1.5
2018-Sep-18 08:02N 53°35' E 008°32'0 9.2
2018-Sep-18 07:59N 53°35' E 008°32'2 5.1
2018-Sep-18 07:30N 53°32' E 008°34'0 0.5
2018-Sep-18 07:03N 53°33' E 008°34'0 0.0
2018-Sep-18 07:00N 53°33' E 008°34'0 0.0
2018-Sep-18 06:26N 53°33' E 008°34'0 0.0
2018-Sep-18 06:03N 53°33' E 008°34'0 0.0
2018-Sep-18 05:55N 53°33' E 008°34'0 0.0
2018-Sep-18 05:30N 53°33' E 008°34'0 0.0
2018-Sep-18 05:01N 53°33' E 008°34'0 0.0
2018-Sep-18 04:58N 53°33' E 008°34'0 0.0
2018-Sep-18 04:29N 53°33' E 008°34'0 0.0
2018-Sep-18 04:03N 53°33' E 008°34'0 0.0
2018-Sep-18 04:00N 53°33' E 008°34'0 0.0
2018-Sep-18 03:29N 53°33' E 008°34'0 0.0
2018-Sep-18 03:03N 53°33' E 008°34'0 0.0
2018-Sep-18 03:00N 53°33' E 008°34'0 0.0
2018-Sep-18 02:29N 53°33' E 008°34'0 0.0
2018-Sep-18 02:02N 53°33' E 008°34'0 0.0
2018-Sep-18 01:54N 53°33' E 008°34'0 0.0
2018-Sep-18 01:30N 53°33' E 008°34'0 0.0
2018-Sep-18 01:03N 53°33' E 008°34'0 0.0
2018-Sep-18 01:00N 53°33' E 008°34'0 0.0
2018-Sep-18 00:27N 53°33' E 008°34'0 0.0
2018-Sep-17 23:56N 53°33' E 008°34'0 0.0
2018-Sep-17 23:23N 53°33' E 008°34'0 0.0
2018-Sep-17 23:02N 53°33' E 008°34'0 0.0
2018-Sep-17 22:59N 53°33' E 008°34'0 0.0
2018-Sep-17 22:29N 53°33' E 008°34'0 0.0
2018-Sep-17 22:02N 53°33' E 008°34'0 0.0
2018-Sep-17 21:54N 53°33' E 008°34'0 0.0
2018-Sep-17 21:30N 53°33' E 008°34'0 0.0
2018-Sep-17 20:59N 53°33' E 008°34'0 0.0
2018-Sep-17 20:29N 53°33' E 008°34'0 0.0
2018-Sep-17 20:03N 53°33' E 008°34'0 0.0
2018-Sep-17 20:00N 53°33' E 008°34'0 0.0
2018-Sep-17 19:30N 53°33' E 008°34'0 0.0
2018-Sep-17 19:01N 53°33' E 008°34'0 0.0
2018-Sep-17 18:58N 53°33' E 008°34'0 0.0
2018-Sep-17 18:28N 53°33' E 008°34'0 0.0
2018-Sep-17 18:03N 53°33' E 008°34'0 0.0
2018-Sep-17 18:00N 53°33' E 008°34'0 0.0
2018-Sep-17 17:24N 53°33' E 008°34'0 0.0
2018-Sep-17 17:03N 53°33' E 008°34'0 0.0
2018-Sep-17 17:00N 53°33' E 008°34'0 0.0
2018-Sep-17 16:28N 53°33' E 008°34'0 0.0
2018-Sep-17 16:03N 53°33' E 008°34'0 0.0
2018-Sep-17 16:00N 53°33' E 008°34'0 0.0
2018-Sep-17 15:29N 53°33' E 008°34'0 0.0
2018-Sep-17 15:01N 53°33' E 008°34'0 0.0
2018-Sep-17 14:59N 53°33' E 008°34'0 0.0
2018-Sep-17 14:30N 53°33' E 008°34'0 0.0
2018-Sep-17 13:58N 53°33' E 008°34'0 0.0
2018-Sep-17 13:29N 53°33' E 008°34'0 0.0
2018-Sep-17 13:03N 53°33' E 008°34'0 0.0
2018-Sep-17 13:00N 53°33' E 008°34'0 0.0
2018-Sep-17 12:27N 53°33' E 008°34'0 0.0
2018-Sep-17 12:02N 53°33' E 008°34'0 0.0
2018-Sep-17 12:00N 53°33' E 008°34'0 0.2
2018-Sep-17 11:30N 53°33' E 008°34'2 4.7
2018-Sep-17 11:03N 53°31' E 008°32'110.2
2018-Sep-17 11:00N 53°31' E 008°32'5 9.7
2018-Sep-17 10:30N 53°26' E 008°30'510.0
2018-Sep-17 10:03N 53°21' E 008°30'110.1
2018-Sep-17 09:59N 53°21' E 008°30'1 2.3
2018-Sep-17 09:28N 53°20' E 008°29'0 0.0
2018-Sep-17 08:31N 53°20' E 008°29'0 0.1
2018-Sep-17 08:28N 53°20' E 008°29'0 0.0
2018-Sep-17 07:58N 53°20' E 008°29'0 0.0
2018-Sep-17 07:16N 53°20' E 008°29'0 0.0
2018-Sep-17 07:01N 53°20' E 008°29'0 0.0
2018-Sep-17 06:28N 53°20' E 008°29'0 0.0
2018-Sep-17 06:03N 53°20' E 008°29'0 0.0
2018-Sep-17 06:00N 53°20' E 008°29'0 0.0
2018-Sep-17 05:28N 53°20' E 008°29'0 0.0
2018-Sep-17 05:00N 53°20' E 008°29'0 0.0
2018-Sep-17 04:25N 53°20' E 008°29'0 0.0
2018-Sep-17 04:01N 53°20' E 008°29'0 0.0
2018-Sep-17 03:58N 53°20' E 008°29'0 0.0
2018-Sep-17 03:30N 53°20' E 008°29'0 0.0
2018-Sep-17 03:02N 53°20' E 008°29'0 0.0
2018-Sep-17 02:59N 53°20' E 008°29'0 0.0
2018-Sep-17 02:29N 53°20' E 008°29'0 0.0
2018-Sep-17 02:03N 53°20' E 008°29'0 0.1
2018-Sep-17 01:59N 53°20' E 008°29'0 0.0
2018-Sep-17 01:28N 53°20' E 008°29'0 0.0
2018-Sep-17 01:03N 53°20' E 008°29'0 0.0
2018-Sep-17 00:57N 53°20' E 008°29'0 0.0
2018-Sep-17 00:27N 53°20' E 008°29'0 0.0
2018-Sep-17 00:04N 53°20' E 008°29'0 0.1
2018-Sep-16 23:56N 53°20' E 008°29'0 0.0
2018-Sep-16 23:28N 53°20' E 008°29'0 0.0
2018-Sep-16 23:01N 53°20' E 008°29'0 0.1
2018-Sep-16 22:57N 53°20' E 008°29'0 0.0
2018-Sep-16 22:27N 53°20' E 008°29'0 0.0
2018-Sep-16 22:01N 53°20' E 008°29'0 0.0
2018-Sep-16 21:58N 53°20' E 008°29'0 0.0
2018-Sep-16 21:28N 53°20' E 008°29'0 0.0
2018-Sep-16 21:01N 53°20' E 008°29'0 0.0
2018-Sep-16 20:54N 53°20' E 008°29'0 0.0
2018-Sep-16 20:27N 53°20' E 008°29'0 0.0
2018-Sep-16 20:01N 53°20' E 008°29'0 0.0
2018-Sep-16 19:58N 53°20' E 008°29'0 0.0
2018-Sep-16 19:29N 53°20' E 008°29'0 0.0
2018-Sep-16 19:01N 53°20' E 008°29'0 0.0
2018-Sep-16 18:57N 53°20' E 008°29'0 0.0
2018-Sep-16 18:29N 53°20' E 008°29'0 0.0
2018-Sep-16 17:50N 53°20' E 008°29'0 0.0
2018-Sep-16 17:26N 53°20' E 008°29'0 0.0
2018-Sep-16 17:01N 53°20' E 008°29'0 0.0
2018-Sep-16 16:59N 53°20' E 008°29'0 0.0
2018-Sep-16 16:29N 53°20' E 008°29'0 0.0
2018-Sep-16 16:02N 53°20' E 008°29'0 0.0
2018-Sep-16 15:59N 53°20' E 008°29'0 0.0
2018-Sep-16 15:26N 53°20' E 008°29'0 0.0
2018-Sep-16 15:00N 53°20' E 008°29'0 0.0
2018-Sep-16 14:28N 53°20' E 008°29'0 0.0
2018-Sep-16 13:28N 53°20' E 008°29'0 0.0
2018-Sep-16 13:01N 53°20' E 008°29'0 0.1
2018-Sep-16 12:58N 53°20' E 008°29'0 0.0
2018-Sep-16 12:30N 53°20' E 008°29'0 0.0
2018-Sep-16 12:03N 53°20' E 008°29'0 0.1
2018-Sep-16 12:00N 53°20' E 008°29'0 0.0
2018-Sep-16 11:24N 53°20' E 008°29'0 0.0
2018-Sep-16 11:01N 53°20' E 008°29'0 0.0
2018-Sep-16 10:52N 53°20' E 008°29'0 0.0
2018-Sep-16 10:28N 53°20' E 008°29'0 0.0
2018-Sep-16 10:03N 53°20' E 008°29'0 0.0
2018-Sep-16 10:00N 53°20' E 008°29'0 0.0
2018-Sep-16 09:30N 53°20' E 008°29'0 0.0
2018-Sep-16 09:01N 53°20' E 008°29'0 0.0
2018-Sep-16 08:58N 53°20' E 008°29'0 0.0
2018-Sep-16 08:29N 53°20' E 008°29'0 0.0
2018-Sep-16 07:58N 53°20' E 008°29'0 0.0
2018-Sep-16 07:30N 53°20' E 008°29'0 0.0
2018-Sep-16 07:02N 53°20' E 008°29'0 0.0
2018-Sep-16 06:56N 53°20' E 008°29'0 0.0
2018-Sep-16 06:28N 53°20' E 008°29'0 0.0
2018-Sep-16 06:03N 53°20' E 008°29'0 0.0
2018-Sep-16 05:55N 53°20' E 008°29'0 0.0
2018-Sep-16 05:28N 53°20' E 008°29'0 0.0
2018-Sep-16 05:02N 53°20' E 008°29'0 0.0
2018-Sep-16 04:54N 53°20' E 008°29'0 0.0
2018-Sep-16 04:27N 53°20' E 008°29'0 0.0
2018-Sep-16 03:57N 53°20' E 008°29'0 0.0
2018-Sep-16 03:23N 53°20' E 008°29'0 0.0
2018-Sep-16 03:01N 53°20' E 008°29'0 0.0
2018-Sep-16 02:58N 53°20' E 008°29'0 0.0
2018-Sep-16 02:29N 53°20' E 008°29'0 0.0
2018-Sep-16 01:56N 53°20' E 008°29'0 0.0
2018-Sep-16 01:29N 53°20' E 008°29'0 0.0
2018-Sep-16 01:02N 53°20' E 008°29'0 0.0
2018-Sep-16 00:59N 53°20' E 008°29'0 0.0
2018-Sep-16 00:29N 53°20' E 008°29'0 0.0
2018-Sep-16 00:03N 53°20' E 008°29'0 0.0
2018-Sep-16 00:00N 53°20' E 008°29'0 0.0
2018-Sep-15 23:20N 53°20' E 008°29'0 0.0
2018-Sep-15 22:59N 53°20' E 008°29'0 0.0
2018-Sep-15 22:30N 53°20' E 008°29'0 0.0
2018-Sep-15 22:01N 53°20' E 008°29'0 0.1
2018-Sep-15 21:58N 53°20' E 008°29'0 0.0
2018-Sep-15 21:29N 53°20' E 008°29'0 0.0
2018-Sep-15 21:02N 53°20' E 008°29'0 0.0
2018-Sep-15 20:58N 53°20' E 008°29'0 0.0
2018-Sep-15 20:30N 53°20' E 008°29'0 0.0
2018-Sep-15 20:03N 53°20' E 008°29'0 0.1
2018-Sep-15 20:00N 53°20' E 008°29'0 0.0
2018-Sep-15 19:23N 53°20' E 008°29'0 0.0
2018-Sep-15 19:00N 53°20' E 008°29'0 0.0
2018-Sep-15 18:29N 53°20' E 008°29'0 0.0
2018-Sep-15 17:57N 53°20' E 008°29'0 0.0
2018-Sep-15 17:26N 53°20' E 008°29'0 0.0
2018-Sep-15 17:03N 53°20' E 008°29'0 0.0
2018-Sep-15 17:00N 53°20' E 008°29'0 0.0
2018-Sep-15 16:22N 53°20' E 008°29'0 0.0
2018-Sep-15 15:59N 53°20' E 008°29'0 0.0
2018-Sep-15 15:28N 53°20' E 008°29'0 0.0
2018-Sep-15 14:59N 53°20' E 008°29'0 0.0
2018-Sep-15 14:30N 53°20' E 008°29'0 0.0
2018-Sep-15 14:00N 53°20' E 008°29'0 0.0
2018-Sep-15 13:28N 53°20' E 008°29'0 0.0
2018-Sep-15 13:02N 53°20' E 008°29'0 0.0
2018-Sep-15 12:58N 53°20' E 008°29'0 0.0
2018-Sep-15 12:28N 53°20' E 008°29'0 0.0
2018-Sep-15 12:03N 53°20' E 008°29'0 0.0
2018-Sep-15 11:55N 53°20' E 008°29'0 0.0
2018-Sep-15 11:30N 53°20' E 008°29'0 0.0
2018-Sep-15 11:01N 53°20' E 008°29'0 0.0
2018-Sep-15 10:58N 53°20' E 008°29'0 0.0
2018-Sep-15 10:28N 53°20' E 008°29'0 0.0
2018-Sep-15 10:01N 53°20' E 008°29'0 0.0
2018-Sep-15 09:58N 53°20' E 008°29'0 0.0
2018-Sep-15 09:29N 53°20' E 008°29'0 0.0
2018-Sep-15 09:02N 53°20' E 008°29'0 0.0
2018-Sep-15 08:59N 53°20' E 008°29'0 0.0
2018-Sep-15 08:29N 53°20' E 008°29'0 0.0
2018-Sep-15 08:02N 53°20' E 008°29'0 0.0
2018-Sep-15 07:59N 53°20' E 008°29'0 0.0
2018-Sep-15 07:29N 53°20' E 008°29'0 0.0
2018-Sep-15 07:02N 53°20' E 008°29'0 0.0
2018-Sep-15 06:56N 53°20' E 008°29'0 0.0
2018-Sep-15 06:20N 53°20' E 008°29'0 0.0
2018-Sep-15 05:57N 53°20' E 008°29'0 0.0
2018-Sep-15 05:30N 53°20' E 008°29'0 0.0
2018-Sep-15 05:03N 53°20' E 008°29'0 0.0
2018-Sep-15 05:00N 53°20' E 008°29'0 0.0
2018-Sep-15 04:28N 53°20' E 008°29'0 0.0
2018-Sep-15 04:03N 53°20' E 008°29'0 0.0
2018-Sep-15 04:00N 53°20' E 008°29'0 0.0
2018-Sep-15 03:20N 53°20' E 008°29'0 0.0
2018-Sep-15 03:02N 53°20' E 008°29'0 0.0
2018-Sep-15 02:58N 53°20' E 008°29'0 0.0
2018-Sep-15 02:29N 53°20' E 008°29'0 0.0
2018-Sep-15 02:03N 53°20' E 008°29'0 0.0
2018-Sep-15 01:55N 53°20' E 008°29'0 0.0
2018-Sep-15 01:29N 53°20' E 008°29'0 0.0
2018-Sep-15 01:02N 53°20' E 008°29'0 0.0
2018-Sep-15 00:59N 53°20' E 008°29'0 0.0
2018-Sep-15 00:29N 53°20' E 008°29'0 0.0
2018-Sep-15 00:01N 53°20' E 008°29'0 0.0
2018-Sep-14 23:58N 53°20' E 008°29'0 0.0
2018-Sep-14 23:25N 53°20' E 008°29'0 0.0
2018-Sep-14 23:02N 53°20' E 008°29'0 0.0
2018-Sep-14 22:54N 53°20' E 008°29'0 0.0
2018-Sep-14 22:30N 53°20' E 008°29'0 0.0
2018-Sep-14 22:02N 53°20' E 008°29'0 0.0
2018-Sep-14 21:59N 53°20' E 008°29'0 0.0
2018-Sep-14 21:30N 53°20' E 008°29'0 0.0
2018-Sep-14 21:03N 53°20' E 008°29'0 0.1
2018-Sep-14 21:00N 53°20' E 008°29'0 0.0
2018-Sep-14 20:28N 53°20' E 008°29'0 0.0
2018-Sep-14 19:57N 53°20' E 008°29'0 0.0
2018-Sep-14 19:26N 53°20' E 008°29'0 0.0
2018-Sep-14 19:01N 53°20' E 008°29'0 0.2
2018-Sep-14 19:00N 53°20' E 008°29'0 0.0
2018-Sep-14 18:30N 53°20' E 008°29'0 0.0
2018-Sep-14 17:57N 53°20' E 008°29'0 0.0
2018-Sep-14 17:25N 53°20' E 008°29'0 0.0
2018-Sep-14 17:00N 53°20' E 008°29'0 0.0
2018-Sep-14 16:29N 53°20' E 008°29'0 0.0
2018-Sep-14 15:50N 53°20' E 008°29'0 0.0
2018-Sep-14 15:25N 53°20' E 008°29'0 0.0
2018-Sep-14 15:02N 53°20' E 008°29'0 0.2
2018-Sep-14 15:00N 53°20' E 008°29'0 0.0
2018-Sep-14 14:24N 53°20' E 008°29'0 0.0
2018-Sep-14 13:57N 53°20' E 008°29'0 0.0
2018-Sep-14 13:30N 53°20' E 008°29'0 0.0
2018-Sep-14 12:54N 53°20' E 008°29'0 0.0
2018-Sep-14 12:28N 53°20' E 008°29'0 0.0
2018-Sep-14 11:57N 53°20' E 008°29'0 0.0
2018-Sep-14 11:25N 53°20' E 008°29'0 0.0
2018-Sep-14 11:03N 53°20' E 008°29'0 0.0
2018-Sep-14 10:59N 53°20' E 008°29'0 0.0
2018-Sep-14 10:28N 53°20' E 008°29'0 0.0
2018-Sep-14 09:59N 53°20' E 008°29'0 0.0
2018-Sep-14 09:26N 53°20' E 008°29'0 0.0
2018-Sep-14 09:01N 53°20' E 008°29'0 0.0
2018-Sep-14 08:53N 53°20' E 008°29'0 0.0
2018-Sep-14 08:29N 53°20' E 008°29'0 0.0
2018-Sep-14 07:59N 53°20' E 008°29'0 0.0
2018-Sep-14 07:23N 53°20' E 008°29'0 0.0
2018-Sep-14 07:02N 53°20' E 008°29'0 0.0
2018-Sep-14 06:55N 53°20' E 008°29'0 0.0
2018-Sep-14 06:30N 53°20' E 008°29'0 0.0
2018-Sep-14 06:03N 53°20' E 008°29'0 0.0
2018-Sep-14 05:59N 53°20' E 008°29'0 0.0
2018-Sep-14 05:26N 53°20' E 008°29'0 0.0
2018-Sep-14 05:03N 53°20' E 008°29'0 0.0
2018-Sep-14 05:00N 53°20' E 008°29'0 0.0
2018-Sep-14 04:30N 53°20' E 008°29'0 0.0
2018-Sep-14 03:59N 53°20' E 008°29'0 0.0
2018-Sep-14 03:26N 53°20' E 008°29'0 0.0
2018-Sep-14 03:00N 53°20' E 008°29'0 0.0
2018-Sep-14 02:28N 53°20' E 008°29'0 0.0
2018-Sep-14 02:03N 53°20' E 008°29'0 0.0
2018-Sep-14 01:58N 53°20' E 008°29'0 0.0
2018-Sep-14 01:30N 53°20' E 008°29'0 0.0
2018-Sep-14 01:01N 53°20' E 008°29'0 0.6
2018-Sep-14 01:01N 53°20' E 008°29'0 0.0
2018-Sep-14 00:29N 53°20' E 008°29'0 0.0
2018-Sep-13 23:58N 53°20' E 008°29'0 0.0
2018-Sep-13 23:30N 53°20' E 008°29'0 0.0
2018-Sep-13 23:02N 53°20' E 008°29'0 0.0
2018-Sep-13 22:51N 53°20' E 008°29'0 0.0
2018-Sep-13 22:26N 53°20' E 008°29'0 0.0
2018-Sep-13 22:02N 53°20' E 008°29'0 0.0
2018-Sep-13 22:00N 53°20' E 008°29'0 0.0
2018-Sep-13 21:30N 53°20' E 008°29'0 0.0
2018-Sep-13 21:02N 53°20' E 008°29'0 0.0
2018-Sep-13 20:59N 53°20' E 008°29'0 0.0
2018-Sep-13 20:27N 53°20' E 008°29'0 0.0
2018-Sep-13 20:02N 53°20' E 008°29'0 0.0
2018-Sep-13 19:59N 53°20' E 008°29'0 0.0
2018-Sep-13 19:28N 53°20' E 008°29'0 0.0
2018-Sep-13 18:56N 53°20' E 008°29'0 0.0
2018-Sep-13 18:24N 53°20' E 008°29'0 0.0
2018-Sep-13 18:01N 53°20' E 008°29'0 0.0
2018-Sep-13 17:58N 53°20' E 008°29'0 0.0
2018-Sep-12 14:48N 53°20' E 008°29'0 0.0
2018-Sep-12 14:24N 53°20' E 008°29'0 0.0
2018-Sep-12 14:00N 53°20' E 008°29'0 0.0
2018-Sep-11 06:18N 53°20' E 008°29'0 0.0
2018-Sep-11 06:04N 53°20' E 008°29'0 0.0
2018-Sep-11 05:58N 53°20' E 008°29'0 0.0
2018-Sep-11 05:29N 53°20' E 008°29'0 0.0
2018-Sep-11 05:01N 53°20' E 008°29'0 0.0
2018-Sep-11 04:28N 53°20' E 008°29'0 0.0
2018-Sep-11 04:03N 53°20' E 008°29'0 0.0
2018-Sep-11 03:49N 53°20' E 008°29'0 0.0
2018-Sep-10 09:22N 53°20' E 008°29'0 0.0
2018-Sep-10 09:02N 53°20' E 008°29'0 0.0
2018-Sep-10 08:49N 53°20' E 008°29'0 0.0
2018-Sep-10 08:25N 53°20' E 008°29'0 0.0
2018-Sep-10 08:02N 53°20' E 008°29'0 0.1
2018-Sep-10 07:58N 53°20' E 008°29'0 0.0
2018-Sep-10 07:22N 53°20' E 008°29'0 0.0
2018-Sep-10 07:00N 53°20' E 008°29'0 0.0
2018-Sep-10 06:30N 53°20' E 008°29'0 0.0
2018-Sep-10 06:03N 53°20' E 008°29'0 0.0
2018-Sep-10 06:00N 53°20' E 008°29'0 0.0
2018-Sep-10 05:22N 53°20' E 008°29'0 0.0
2018-Sep-10 05:01N 53°20' E 008°29'0 0.0
2018-Sep-10 04:58N 53°20' E 008°29'0 0.0
2018-Sep-10 04:29N 53°20' E 008°29'0 0.0
2018-Sep-10 03:56N 53°20' E 008°29'0 0.0
2018-Sep-10 03:24N 53°20' E 008°29'0 0.0
2018-Sep-10 03:01N 53°20' E 008°29'0 0.0
2018-Sep-10 02:59N 53°20' E 008°29'0 0.0
2018-Sep-10 02:29N 53°20' E 008°29'0 0.0
2018-Sep-10 02:03N 53°20' E 008°29'0 0.0
2018-Sep-10 01:57N 53°20' E 008°29'0 0.0
2018-Sep-10 01:31N 53°20' E 008°29'0 0.0
2018-Sep-10 00:59N 53°20' E 008°29'0 0.0
2018-Sep-09 23:24N 53°20' E 008°29'0 0.0
2018-Sep-09 22:59N 53°20' E 008°29'0 0.0
2018-Sep-09 22:29N 53°20' E 008°29'0 0.0
2018-Sep-09 22:03N 53°20' E 008°29'0 0.0
2018-Sep-09 21:56N 53°20' E 008°29'0 0.0
2018-Sep-09 21:30N 53°20' E 008°29'0 0.0
2018-Sep-09 21:03N 53°20' E 008°29'0 0.0
2018-Sep-09 21:00N 53°20' E 008°29'0 0.0
2018-Sep-09 20:28N 53°20' E 008°29'0 0.0
2018-Sep-09 20:03N 53°20' E 008°29'0 0.0
2018-Sep-09 19:57N 53°20' E 008°29'0 0.0
2018-Sep-09 19:24N 53°20' E 008°29'0 0.0
2018-Sep-09 19:00N 53°20' E 008°29'0 0.0
2018-Sep-09 18:26N 53°20' E 008°29'0 0.0
2018-Sep-09 18:02N 53°20' E 008°29'0 0.0
2018-Sep-09 17:55N 53°20' E 008°29'0 0.0
2018-Sep-09 17:30N 53°20' E 008°29'0 0.0
2018-Sep-09 16:57N 53°20' E 008°29'0 0.0
2018-Sep-09 16:29N 53°20' E 008°29'0 0.0
2018-Sep-09 16:02N 53°20' E 008°29'0 0.0
2018-Sep-09 15:54N 53°20' E 008°29'0 0.0
2018-Sep-09 15:30N 53°20' E 008°29'0 0.0
2018-Sep-09 15:00N 53°20' E 008°29'0 0.0
2018-Sep-09 14:21N 53°20' E 008°29'0 0.0
2018-Sep-09 13:57N 53°20' E 008°29'0 0.0
2018-Sep-09 13:25N 53°20' E 008°29'0 0.0
2018-Sep-09 13:01N 53°20' E 008°29'0 0.0
2018-Sep-09 12:59N 53°20' E 008°29'0 0.0
2018-Sep-09 12:27N 53°20' E 008°29'0 0.0
2018-Sep-09 11:55N 53°20' E 008°29'0 0.0
2018-Sep-09 11:30N 53°20' E 008°29'0 0.0
2018-Sep-09 11:01N 53°20' E 008°29'0 0.0
2018-Sep-09 10:58N 53°20' E 008°29'0 0.0
2018-Sep-09 10:21N 53°20' E 008°29'0 0.0
2018-Sep-09 10:03N 53°20' E 008°29'0 0.0
2018-Sep-09 09:56N 53°20' E 008°29'0 0.0
2018-Sep-09 09:30N 53°20' E 008°29'0 0.0
2018-Sep-09 09:00N 53°20' E 008°29'0 0.0
2018-Sep-09 08:21N 53°20' E 008°29'0 0.0
2018-Sep-09 08:02N 53°20' E 008°29'0 0.0
2018-Sep-09 07:50N 53°20' E 008°29'0 0.0
2018-Sep-09 07:30N 53°20' E 008°29'0 0.0
2018-Sep-09 07:00N 53°20' E 008°29'0 0.0
2018-Sep-09 06:25N 53°20' E 008°29'0 0.0
2018-Sep-09 06:02N 53°20' E 008°29'0 0.0
2018-Sep-09 05:55N 53°20' E 008°29'0 0.0
2018-Sep-09 05:29N 53°20' E 008°29'0 0.0
2018-Sep-09 04:54N 53°20' E 008°29'0 0.0
2018-Sep-09 04:18N 53°20' E 008°29'0 0.0
2018-Sep-09 04:03N 53°20' E 008°29'0 0.0
2018-Sep-09 03:54N 53°20' E 008°29'0 0.0
2018-Sep-09 03:29N 53°20' E 008°29'0 0.0
2018-Sep-09 03:00N 53°20' E 008°29'  

Dump ship's entire track history